sensor_id;sensor_type;location;lat;lon;timestamp;P1;durP1;ratioP1;P2;durP2;ratioP2
53513;SDS011;39768;54.148;12.174;2023-02-17T00:05:19;10.55;;;5.45;;
53513;SDS011;39768;54.148;12.174;2023-02-17T00:11:12;9.10;;;4.05;;
53513;SDS011;39768;54.148;12.174;2023-02-17T00:28:53;11.95;;;6.50;;
53513;SDS011;39768;54.148;12.174;2023-02-17T00:58:48;5.40;;;4.95;;
53513;SDS011;39768;54.148;12.174;2023-02-17T01:04:47;5.38;;;2.75;;
53513;SDS011;39768;54.148;12.174;2023-02-17T01:10:19;11.93;;;5.15;;
53513;SDS011;39768;54.148;12.174;2023-02-17T01:15:48;15.52;;;6.03;;
53513;SDS011;39768;54.148;12.174;2023-02-17T01:21:30;10.13;;;3.80;;
53513;SDS011;39768;54.148;12.174;2023-02-17T01:32:43;8.43;;;3.53;;
53513;SDS011;39768;54.148;12.174;2023-02-17T01:49:58;11.70;;;6.13;;
53513;SDS011;39768;54.148;12.174;2023-02-17T02:00:17;16.17;;;8.98;;
53513;SDS011;39768;54.148;12.174;2023-02-17T02:05:41;13.93;;;6.72;;
53513;SDS011;39768;54.148;12.174;2023-02-17T02:11:17;13.95;;;6.90;;
53513;SDS011;39768;54.148;12.174;2023-02-17T02:16:00;9.43;;;6.32;;
53513;SDS011;39768;54.148;12.174;2023-02-17T02:35:35;24.63;;;8.98;;
53513;SDS011;39768;54.148;12.174;2023-02-17T02:39:22;14.13;;;6.80;;
53513;SDS011;39768;54.148;12.174;2023-02-17T02:43:27;19.02;;;8.30;;
53513;SDS011;39768;54.148;12.174;2023-02-17T03:00:47;15.93;;;9.35;;
53513;SDS011;39768;54.148;12.174;2023-02-17T03:09:02;18.10;;;7.55;;
53513;SDS011;39768;54.148;12.174;2023-02-17T03:13:06;14.73;;;7.03;;
53513;SDS011;39768;54.148;12.174;2023-02-17T03:17:08;15.40;;;6.53;;
53513;SDS011;39768;54.148;12.174;2023-02-17T03:21:11;21.13;;;9.57;;
53513;SDS011;39768;54.148;12.174;2023-02-17T03:25:16;13.20;;;6.50;;
53513;SDS011;39768;54.148;12.174;2023-02-17T03:29:19;26.20;;;10.13;;
53513;SDS011;39768;54.148;12.174;2023-02-17T03:33:21;17.98;;;7.55;;
53513;SDS011;39768;54.148;12.174;2023-02-17T03:37:22;23.08;;;7.82;;
53513;SDS011;39768;54.148;12.174;2023-02-17T03:41:24;14.07;;;5.55;;
53513;SDS011;39768;54.148;12.174;2023-02-17T03:45:26;11.77;;;5.50;;
53513;SDS011;39768;54.148;12.174;2023-02-17T03:49:27;11.23;;;6.35;;
53513;SDS011;39768;54.148;12.174;2023-02-17T03:53:29;13.95;;;5.03;;
53513;SDS011;39768;54.148;12.174;2023-02-17T03:57:30;10.52;;;5.22;;
53513;SDS011;39768;54.148;12.174;2023-02-17T04:01:32;10.35;;;7.00;;
53513;SDS011;39768;54.148;12.174;2023-02-17T04:05:34;13.07;;;5.78;;
53513;SDS011;39768;54.148;12.174;2023-02-17T04:09:35;17.55;;;6.45;;
53513;SDS011;39768;54.148;12.174;2023-02-17T04:13:37;22.08;;;7.68;;
53513;SDS011;39768;54.148;12.174;2023-02-17T04:17:40;19.27;;;9.57;;
53513;SDS011;39768;54.148;12.174;2023-02-17T04:21:41;23.80;;;8.95;;
53513;SDS011;39768;54.148;12.174;2023-02-17T04:25:43;12.18;;;5.35;;
53513;SDS011;39768;54.148;12.174;2023-02-17T04:29:45;11.10;;;5.65;;
53513;SDS011;39768;54.148;12.174;2023-02-17T04:33:46;12.32;;;5.80;;
53513;SDS011;39768;54.148;12.174;2023-02-17T04:37:48;14.13;;;6.72;;
53513;SDS011;39768;54.148;12.174;2023-02-17T04:41:49;12.70;;;5.90;;
53513;SDS011;39768;54.148;12.174;2023-02-17T04:45:51;12.18;;;5.88;;
53513;SDS011;39768;54.148;12.174;2023-02-17T04:49:53;17.15;;;6.43;;
53513;SDS011;39768;54.148;12.174;2023-02-17T04:53:54;6.60;;;4.95;;
53513;SDS011;39768;54.148;12.174;2023-02-17T04:57:55;10.60;;;4.68;;
53513;SDS011;39768;54.148;12.174;2023-02-17T05:01:57;8.23;;;4.32;;
53513;SDS011;39768;54.148;12.174;2023-02-17T05:05:58;14.95;;;5.00;;
53513;SDS011;39768;54.148;12.174;2023-02-17T05:10:00;15.25;;;5.22;;
53513;SDS011;39768;54.148;12.174;2023-02-17T05:14:02;9.15;;;5.05;;
53513;SDS011;39768;54.148;12.174;2023-02-17T05:18:03;5.68;;;4.38;;
53513;SDS011;39768;54.148;12.174;2023-02-17T05:22:05;11.35;;;4.20;;
53513;SDS011;39768;54.148;12.174;2023-02-17T05:26:07;8.40;;;4.28;;
53513;SDS011;39768;54.148;12.174;2023-02-17T05:30:09;6.88;;;3.53;;
53513;SDS011;39768;54.148;12.174;2023-02-17T05:34:11;9.32;;;4.47;;
53513;SDS011;39768;54.148;12.174;2023-02-17T05:38:12;7.95;;;4.43;;
53513;SDS011;39768;54.148;12.174;2023-02-17T05:42:14;11.38;;;4.53;;
53513;SDS011;39768;54.148;12.174;2023-02-17T05:46:15;15.95;;;4.75;;
53513;SDS011;39768;54.148;12.174;2023-02-17T05:50:17;8.70;;;4.93;;
53513;SDS011;39768;54.148;12.174;2023-02-17T05:54:18;10.63;;;5.13;;
53513;SDS011;39768;54.148;12.174;2023-02-17T05:58:20;12.85;;;7.85;;
53513;SDS011;39768;54.148;12.174;2023-02-17T06:02:21;7.47;;;4.65;;
53513;SDS011;39768;54.148;12.174;2023-02-17T06:06:23;9.23;;;4.50;;
53513;SDS011;39768;54.148;12.174;2023-02-17T06:10:25;10.40;;;6.03;;
53513;SDS011;39768;54.148;12.174;2023-02-17T06:14:26;9.68;;;5.40;;
53513;SDS011;39768;54.148;12.174;2023-02-17T06:18:28;12.80;;;5.68;;
53513;SDS011;39768;54.148;12.174;2023-02-17T06:22:30;10.82;;;5.88;;
53513;SDS011;39768;54.148;12.174;2023-02-17T06:26:32;14.07;;;3.88;;
53513;SDS011;39768;54.148;12.174;2023-02-17T06:30:33;16.58;;;5.20;;
53513;SDS011;39768;54.148;12.174;2023-02-17T06:34:35;9.27;;;3.25;;
53513;SDS011;39768;54.148;12.174;2023-02-17T06:38:36;6.95;;;3.85;;
53513;SDS011;39768;54.148;12.174;2023-02-17T06:42:38;7.45;;;4.00;;
53513;SDS011;39768;54.148;12.174;2023-02-17T06:46:39;10.13;;;3.78;;
53513;SDS011;39768;54.148;12.174;2023-02-17T06:50:41;6.97;;;3.97;;
53513;SDS011;39768;54.148;12.174;2023-02-17T06:54:42;8.10;;;4.03;;
53513;SDS011;39768;54.148;12.174;2023-02-17T06:58:44;6.70;;;3.08;;
53513;SDS011;39768;54.148;12.174;2023-02-17T07:02:45;4.28;;;3.75;;
53513;SDS011;39768;54.148;12.174;2023-02-17T07:06:47;8.10;;;2.47;;
53513;SDS011;39768;54.148;12.174;2023-02-17T07:10:48;7.75;;;4.43;;
53513;SDS011;39768;54.148;12.174;2023-02-17T07:14:50;7.07;;;3.75;;
53513;SDS011;39768;54.148;12.174;2023-02-17T07:18:52;11.90;;;5.47;;
53513;SDS011;39768;54.148;12.174;2023-02-17T07:22:53;3.05;;;2.40;;
53513;SDS011;39768;54.148;12.174;2023-02-17T07:26:55;7.05;;;3.35;;
53513;SDS011;39768;54.148;12.174;2023-02-17T07:31:02;9.15;;;4.70;;
53513;SDS011;39768;54.148;12.174;2023-02-17T07:35:05;7.13;;;3.53;;
53513;SDS011;39768;54.148;12.174;2023-02-17T07:39:07;6.70;;;3.28;;
53513;SDS011;39768;54.148;12.174;2023-02-17T07:43:08;18.02;;;6.03;;
53513;SDS011;39768;54.148;12.174;2023-02-17T07:47:10;9.93;;;4.90;;
53513;SDS011;39768;54.148;12.174;2023-02-17T07:51:13;7.10;;;3.88;;
53513;SDS011;39768;54.148;12.174;2023-02-17T07:55:16;7.10;;;3.45;;
53513;SDS011;39768;54.148;12.174;2023-02-17T07:59:18;5.53;;;2.75;;
53513;SDS011;39768;54.148;12.174;2023-02-17T08:03:19;13.60;;;5.88;;
53513;SDS011;39768;54.148;12.174;2023-02-17T08:07:21;11.23;;;4.43;;
53513;SDS011;39768;54.148;12.174;2023-02-17T08:11:22;6.18;;;3.08;;
53513;SDS011;39768;54.148;12.174;2023-02-17T08:15:45;6.50;;;3.90;;
53513;SDS011;39768;54.148;12.174;2023-02-17T08:19:47;9.25;;;4.50;;
53513;SDS011;39768;54.148;12.174;2023-02-17T08:23:49;7.25;;;4.32;;
53513;SDS011;39768;54.148;12.174;2023-02-17T08:27:51;10.75;;;4.03;;
53513;SDS011;39768;54.148;12.174;2023-02-17T08:31:54;7.63;;;4.30;;
53513;SDS011;39768;54.148;12.174;2023-02-17T08:35:56;8.23;;;3.90;;
53513;SDS011;39768;54.148;12.174;2023-02-17T08:39:57;7.38;;;3.78;;
53513;SDS011;39768;54.148;12.174;2023-02-17T08:44:00;5.10;;;2.30;;
53513;SDS011;39768;54.148;12.174;2023-02-17T08:48:03;3.15;;;2.67;;
53513;SDS011;39768;54.148;12.174;2023-02-17T08:52:05;7.60;;;3.45;;
53513;SDS011;39768;54.148;12.174;2023-02-17T08:56:07;3.75;;;2.17;;
53513;SDS011;39768;54.148;12.174;2023-02-17T09:00:09;6.75;;;1.80;;
53513;SDS011;39768;54.148;12.174;2023-02-17T09:04:11;6.95;;;2.42;;
53513;SDS011;39768;54.148;12.174;2023-02-17T09:08:14;5.90;;;2.05;;
53513;SDS011;39768;54.148;12.174;2023-02-17T09:12:16;4.53;;;1.58;;
53513;SDS011;39768;54.148;12.174;2023-02-17T09:16:18;2.30;;;1.98;;
53513;SDS011;39768;54.148;12.174;2023-02-17T09:20:21;4.30;;;2.38;;
53513;SDS011;39768;54.148;12.174;2023-02-17T09:24:25;3.15;;;1.70;;
53513;SDS011;39768;54.148;12.174;2023-02-17T09:28:27;1.98;;;1.67;;
53513;SDS011;39768;54.148;12.174;2023-02-17T09:32:28;3.55;;;2.80;;
53513;SDS011;39768;54.148;12.174;2023-02-17T09:36:31;3.80;;;1.95;;
53513;SDS011;39768;54.148;12.174;2023-02-17T09:40:40;2.17;;;1.92;;
53513;SDS011;39768;54.148;12.174;2023-02-17T09:44:50;5.07;;;1.70;;
53513;SDS011;39768;54.148;12.174;2023-02-17T09:49:01;2.85;;;2.17;;
53513;SDS011;39768;54.148;12.174;2023-02-17T09:53:15;1.20;;;0.90;;
53513;SDS011;39768;54.148;12.174;2023-02-17T09:57:26;1.85;;;1.70;;
53513;SDS011;39768;54.148;12.174;2023-02-17T10:01:30;2.20;;;1.48;;
53513;SDS011;39768;54.148;12.174;2023-02-17T10:05:35;1.98;;;1.17;;
53513;SDS011;39768;54.148;12.174;2023-02-17T10:09:51;3.03;;;1.48;;
53513;SDS011;39768;54.148;12.174;2023-02-17T10:14:00;8.45;;;1.45;;
53513;SDS011;39768;54.148;12.174;2023-02-17T10:18:16;3.00;;;1.40;;
53513;SDS011;39768;54.148;12.174;2023-02-17T10:22:22;3.67;;;1.08;;
53513;SDS011;39768;54.148;12.174;2023-02-17T10:26:38;4.18;;;1.85;;
53513;SDS011;39768;54.148;12.174;2023-02-17T10:30:53;6.88;;;1.80;;
53513;SDS011;39768;54.148;12.174;2023-02-17T10:35:21;4.78;;;2.80;;
53513;SDS011;39768;54.148;12.174;2023-02-17T10:39:40;1.88;;;0.88;;
53513;SDS011;39768;54.148;12.174;2023-02-17T10:43:50;3.53;;;1.75;;
53513;SDS011;39768;54.148;12.174;2023-02-17T10:47:55;1.85;;;1.10;;
53513;SDS011;39768;54.148;12.174;2023-02-17T10:52:08;1.42;;;1.33;;
53513;SDS011;39768;54.148;12.174;2023-02-17T10:56:20;2.80;;;1.55;;
53513;SDS011;39768;54.148;12.174;2023-02-17T11:00:26;1.65;;;1.55;;
53513;SDS011;39768;54.148;12.174;2023-02-17T11:04:27;2.28;;;1.67;;
53513;SDS011;39768;54.148;12.174;2023-02-17T11:08:45;3.40;;;2.00;;
53513;SDS011;39768;54.148;12.174;2023-02-17T11:12:50;1.70;;;1.08;;
53513;SDS011;39768;54.148;12.174;2023-02-17T11:16:56;3.05;;;1.85;;
53513;SDS011;39768;54.148;12.174;2023-02-17T11:21:07;2.63;;;1.58;;
53513;SDS011;39768;54.148;12.174;2023-02-17T11:25:30;1.55;;;1.45;;
53513;SDS011;39768;54.148;12.174;2023-02-17T11:29:33;3.30;;;1.77;;
53513;SDS011;39768;54.148;12.174;2023-02-17T11:33:36;3.40;;;1.90;;
53513;SDS011;39768;54.148;12.174;2023-02-17T11:37:41;0.90;;;0.90;;
53513;SDS011;39768;54.148;12.174;2023-02-17T11:41:43;1.00;;;0.95;;
53513;SDS011;39768;54.148;12.174;2023-02-17T11:54:45;2.53;;;1.38;;
53513;SDS011;39768;54.148;12.174;2023-02-17T12:12:20;1.58;;;1.42;;
53513;SDS011;39768;54.148;12.174;2023-02-17T12:20:40;2.35;;;1.17;;
53513;SDS011;39768;54.148;12.174;2023-02-17T12:51:04;0.60;;;0.60;;
53513;SDS011;39768;54.148;12.174;2023-02-17T12:55:15;2.92;;;1.13;;
53513;SDS011;39768;54.148;12.174;2023-02-17T12:59:37;0.60;;;0.60;;
53513;SDS011;39768;54.148;12.174;2023-02-17T13:12:05;0.60;;;0.60;;
53513;SDS011;39768;54.148;12.174;2023-02-17T13:36:20;2.30;;;1.08;;
53513;SDS011;39768;54.148;12.174;2023-02-17T13:41:32;1.38;;;1.27;;
53513;SDS011;39768;54.148;12.174;2023-02-17T14:03:26;1.10;;;1.00;;
53513;SDS011;39768;54.148;12.174;2023-02-17T14:08:11;0.52;;;0.52;;
53513;SDS011;39768;54.148;12.174;2023-02-17T14:19:18;1.77;;;0.65;;
53513;SDS011;39768;54.148;12.174;2023-02-17T14:23:57;2.33;;;0.75;;
53513;SDS011;39768;54.148;12.174;2023-02-17T14:29:20;2.17;;;0.73;;
53513;SDS011;39768;54.148;12.174;2023-02-17T14:39:22;0.80;;;0.80;;
53513;SDS011;39768;54.148;12.174;2023-02-17T14:49:50;0.70;;;0.70;;
53513;SDS011;39768;54.148;12.174;2023-02-17T15:00:25;1.88;;;1.08;;
53513;SDS011;39768;54.148;12.174;2023-02-17T15:06:08;0.43;;;0.43;;
53513;SDS011;39768;54.148;12.174;2023-02-17T15:11:50;2.38;;;1.05;;
53513;SDS011;39768;54.148;12.174;2023-02-17T15:17:33;8.13;;;1.27;;
53513;SDS011;39768;54.148;12.174;2023-02-17T15:22:26;1.88;;;0.90;;
53513;SDS011;39768;54.148;12.174;2023-02-17T15:27:38;2.40;;;1.10;;
53513;SDS011;39768;54.148;12.174;2023-02-17T15:32:42;1.38;;;0.57;;
53513;SDS011;39768;54.148;12.174;2023-02-17T15:36:44;2.42;;;1.17;;
53513;SDS011;39768;54.148;12.174;2023-02-17T15:40:54;0.77;;;0.77;;
53513;SDS011;39768;54.148;12.174;2023-02-17T15:45:00;3.78;;;0.93;;
53513;SDS011;39768;54.148;12.174;2023-02-17T15:49:01;5.93;;;1.10;;
53513;SDS011;39768;54.148;12.174;2023-02-17T15:53:03;0.68;;;0.57;;
53513;SDS011;39768;54.148;12.174;2023-02-17T15:57:05;1.23;;;0.80;;
53513;SDS011;39768;54.148;12.174;2023-02-17T16:01:21;6.53;;;1.52;;
53513;SDS011;39768;54.148;12.174;2023-02-17T16:05:28;9.82;;;2.05;;
53513;SDS011;39768;54.148;12.174;2023-02-17T16:09:30;2.42;;;1.10;;
53513;SDS011;39768;54.148;12.174;2023-02-17T16:13:31;3.90;;;1.33;;
53513;SDS011;39768;54.148;12.174;2023-02-17T16:17:34;12.18;;;1.08;;
53513;SDS011;39768;54.148;12.174;2023-02-17T16:21:35;2.17;;;0.60;;
53513;SDS011;39768;54.148;12.174;2023-02-17T16:25:37;0.80;;;0.80;;
53513;SDS011;39768;54.148;12.174;2023-02-17T16:29:39;3.70;;;1.30;;
53513;SDS011;39768;54.148;12.174;2023-02-17T16:33:41;6.72;;;2.58;;
53513;SDS011;39768;54.148;12.174;2023-02-17T16:37:48;11.57;;;1.77;;
53513;SDS011;39768;54.148;12.174;2023-02-17T16:41:53;9.82;;;1.75;;
53513;SDS011;39768;54.148;12.174;2023-02-17T16:46:10;3.20;;;1.10;;
53513;SDS011;39768;54.148;12.174;2023-02-17T16:50:30;2.38;;;1.55;;
53513;SDS011;39768;54.148;12.174;2023-02-17T16:54:37;1.98;;;1.45;;
53513;SDS011;39768;54.148;12.174;2023-02-17T16:58:52;3.03;;;1.10;;
53513;SDS011;39768;54.148;12.174;2023-02-17T17:02:56;11.82;;;2.58;;
53513;SDS011;39768;54.148;12.174;2023-02-17T17:06:58;1.50;;;0.98;;
53513;SDS011;39768;54.148;12.174;2023-02-17T17:11:00;1.23;;;1.13;;
53513;SDS011;39768;54.148;12.174;2023-02-17T17:15:01;5.25;;;1.30;;
53513;SDS011;39768;54.148;12.174;2023-02-17T17:19:03;9.13;;;1.00;;
53513;SDS011;39768;54.148;12.174;2023-02-17T17:23:06;4.68;;;1.95;;
53513;SDS011;39768;54.148;12.174;2023-02-17T17:27:09;0.50;;;0.50;;
53513;SDS011;39768;54.148;12.174;2023-02-17T17:31:20;2.95;;;1.65;;
53513;SDS011;39768;54.148;12.174;2023-02-17T17:35:32;2.97;;;1.38;;
53513;SDS011;39768;54.148;12.174;2023-02-17T17:39:33;6.85;;;2.10;;
53513;SDS011;39768;54.148;12.174;2023-02-17T17:43:36;0.70;;;0.70;;
53513;SDS011;39768;54.148;12.174;2023-02-17T17:47:37;1.33;;;0.85;;
53513;SDS011;39768;54.148;12.174;2023-02-17T17:51:39;15.07;;;3.25;;
53513;SDS011;39768;54.148;12.174;2023-02-17T17:55:41;2.08;;;0.93;;
53513;SDS011;39768;54.148;12.174;2023-02-17T17:59:42;5.82;;;1.80;;
53513;SDS011;39768;54.148;12.174;2023-02-17T18:03:44;21.77;;;1.42;;
53513;SDS011;39768;54.148;12.174;2023-02-17T18:07:46;8.13;;;1.52;;
53513;SDS011;39768;54.148;12.174;2023-02-17T18:11:50;2.45;;;1.38;;
53513;SDS011;39768;54.148;12.174;2023-02-17T18:15:54;5.18;;;1.45;;
53513;SDS011;39768;54.148;12.174;2023-02-17T18:19:55;6.32;;;1.23;;
53513;SDS011;39768;54.148;12.174;2023-02-17T18:23:57;2.15;;;1.15;;
53513;SDS011;39768;54.148;12.174;2023-02-17T18:27:58;0.40;;;0.40;;
53513;SDS011;39768;54.148;12.174;2023-02-17T18:32:00;6.97;;;1.63;;
53513;SDS011;39768;54.148;12.174;2023-02-17T18:36:06;3.85;;;1.52;;
53513;SDS011;39768;54.148;12.174;2023-02-17T18:40:09;14.75;;;1.92;;
53513;SDS011;39768;54.148;12.174;2023-02-17T18:44:12;5.28;;;1.63;;
53513;SDS011;39768;54.148;12.174;2023-02-17T18:48:14;1.25;;;0.85;;
53513;SDS011;39768;54.148;12.174;2023-02-17T18:52:15;1.88;;;1.67;;
53513;SDS011;39768;54.148;12.174;2023-02-17T18:56:18;20.80;;;2.03;;
53513;SDS011;39768;54.148;12.174;2023-02-17T19:00:21;12.07;;;1.48;;
53513;SDS011;39768;54.148;12.174;2023-02-17T19:04:24;5.70;;;1.50;;
53513;SDS011;39768;54.148;12.174;2023-02-17T19:08:26;5.47;;;2.38;;
53513;SDS011;39768;54.148;12.174;2023-02-17T19:12:28;1.67;;;1.58;;
53513;SDS011;39768;54.148;12.174;2023-02-17T19:16:30;6.60;;;1.35;;
53513;SDS011;39768;54.148;12.174;2023-02-17T19:20:32;6.97;;;1.67;;
53513;SDS011;39768;54.148;12.174;2023-02-17T19:24:37;6.57;;;2.33;;
53513;SDS011;39768;54.148;12.174;2023-02-17T19:28:40;1.27;;;1.17;;
53513;SDS011;39768;54.148;12.174;2023-02-17T19:32:42;0.45;;;0.45;;
53513;SDS011;39768;54.148;12.174;2023-02-17T19:36:44;14.68;;;1.40;;
53513;SDS011;39768;54.148;12.174;2023-02-17T19:40:46;2.70;;;1.25;;
53513;SDS011;39768;54.148;12.174;2023-02-17T19:44:47;1.67;;;1.52;;
53513;SDS011;39768;54.148;12.174;2023-02-17T19:48:49;5.05;;;2.13;;
53513;SDS011;39768;54.148;12.174;2023-02-17T19:52:50;3.50;;;0.90;;
53513;SDS011;39768;54.148;12.174;2023-02-17T19:56:52;5.82;;;1.35;;
53513;SDS011;39768;54.148;12.174;2023-02-17T20:00:54;4.82;;;1.42;;
53513;SDS011;39768;54.148;12.174;2023-02-17T20:04:55;1.02;;;0.85;;
53513;SDS011;39768;54.148;12.174;2023-02-17T20:08:58;2.50;;;0.80;;
53513;SDS011;39768;54.148;12.174;2023-02-17T20:13:01;5.25;;;1.05;;
53513;SDS011;39768;54.148;12.174;2023-02-17T20:17:03;4.95;;;1.02;;
53513;SDS011;39768;54.148;12.174;2023-02-17T20:21:06;6.57;;;1.33;;
53513;SDS011;39768;54.148;12.174;2023-02-17T20:25:09;2.50;;;1.20;;
53513;SDS011;39768;54.148;12.174;2023-02-17T20:29:11;2.72;;;1.65;;
53513;SDS011;39768;54.148;12.174;2023-02-17T20:33:13;0.95;;;0.55;;
53513;SDS011;39768;54.148;12.174;2023-02-17T20:37:15;1.33;;;0.95;;
53513;SDS011;39768;54.148;12.174;2023-02-17T20:41:17;4.10;;;1.38;;
53513;SDS011;39768;54.148;12.174;2023-02-17T20:45:21;1.85;;;0.65;;
53513;SDS011;39768;54.148;12.174;2023-02-17T20:49:22;4.32;;;1.08;;
53513;SDS011;39768;54.148;12.174;2023-02-17T20:53:25;2.72;;;0.82;;
53513;SDS011;39768;54.148;12.174;2023-02-17T20:57:27;6.57;;;1.40;;
53513;SDS011;39768;54.148;12.174;2023-02-17T21:01:28;3.28;;;0.80;;
53513;SDS011;39768;54.148;12.174;2023-02-17T21:05:30;6.05;;;1.75;;
53513;SDS011;39768;54.148;12.174;2023-02-17T21:09:32;5.38;;;1.10;;
53513;SDS011;39768;54.148;12.174;2023-02-17T21:13:34;2.35;;;1.10;;
53513;SDS011;39768;54.148;12.174;2023-02-17T21:17:36;9.82;;;1.45;;
53513;SDS011;39768;54.148;12.174;2023-02-17T21:21:38;3.17;;;1.27;;
53513;SDS011;39768;54.148;12.174;2023-02-17T21:25:43;8.30;;;1.55;;
53513;SDS011;39768;54.148;12.174;2023-02-17T21:29:45;5.22;;;1.02;;
53513;SDS011;39768;54.148;12.174;2023-02-17T21:33:47;8.85;;;2.67;;
53513;SDS011;39768;54.148;12.174;2023-02-17T21:37:48;1.50;;;0.80;;
53513;SDS011;39768;54.148;12.174;2023-02-17T21:41:50;4.10;;;0.82;;
53513;SDS011;39768;54.148;12.174;2023-02-17T21:45:51;9.27;;;1.35;;
53513;SDS011;39768;54.148;12.174;2023-02-17T21:49:53;11.52;;;1.92;;
53513;SDS011;39768;54.148;12.174;2023-02-17T21:53:55;2.28;;;1.20;;
53513;SDS011;39768;54.148;12.174;2023-02-17T21:57:56;5.68;;;1.35;;
53513;SDS011;39768;54.148;12.174;2023-02-17T22:01:58;11.35;;;1.65;;
53513;SDS011;39768;54.148;12.174;2023-02-17T22:05:59;2.17;;;2.03;;
53513;SDS011;39768;54.148;12.174;2023-02-17T22:10:01;10.40;;;0.80;;
53513;SDS011;39768;54.148;12.174;2023-02-17T22:14:04;8.00;;;1.35;;
53513;SDS011;39768;54.148;12.174;2023-02-17T22:18:12;0.82;;;0.82;;
53513;SDS011;39768;54.148;12.174;2023-02-17T22:22:14;1.45;;;0.95;;
53513;SDS011;39768;54.148;12.174;2023-02-17T22:26:16;1.77;;;0.90;;
53513;SDS011;39768;54.148;12.174;2023-02-17T22:30:20;7.93;;;2.33;;
53513;SDS011;39768;54.148;12.174;2023-02-17T22:34:21;6.20;;;1.92;;
53513;SDS011;39768;54.148;12.174;2023-02-17T22:38:23;10.95;;;1.95;;
53513;SDS011;39768;54.148;12.174;2023-02-17T22:42:25;3.75;;;1.58;;
53513;SDS011;39768;54.148;12.174;2023-02-17T22:46:28;13.20;;;2.00;;
53513;SDS011;39768;54.148;12.174;2023-02-17T22:50:29;9.23;;;1.55;;
53513;SDS011;39768;54.148;12.174;2023-02-17T22:54:31;3.90;;;1.52;;
53513;SDS011;39768;54.148;12.174;2023-02-17T22:58:32;3.67;;;1.20;;
53513;SDS011;39768;54.148;12.174;2023-02-17T23:02:35;1.65;;;0.85;;
53513;SDS011;39768;54.148;12.174;2023-02-17T23:06:36;3.17;;;1.15;;
53513;SDS011;39768;54.148;12.174;2023-02-17T23:10:39;4.55;;;1.60;;
53513;SDS011;39768;54.148;12.174;2023-02-17T23:14:41;10.43;;;0.93;;
53513;SDS011;39768;54.148;12.174;2023-02-17T23:18:43;6.95;;;0.93;;
53513;SDS011;39768;54.148;12.174;2023-02-17T23:22:44;8.05;;;1.52;;
53513;SDS011;39768;54.148;12.174;2023-02-17T23:26:46;12.48;;;1.77;;
53513;SDS011;39768;54.148;12.174;2023-02-17T23:30:47;3.67;;;1.38;;
53513;SDS011;39768;54.148;12.174;2023-02-17T23:34:49;20.63;;;1.63;;
53513;SDS011;39768;54.148;12.174;2023-02-17T23:38:51;5.13;;;1.17;;
53513;SDS011;39768;54.148;12.174;2023-02-17T23:42:53;1.77;;;1.08;;
53513;SDS011;39768;54.148;12.174;2023-02-17T23:46:54;5.47;;;1.42;;
53513;SDS011;39768;54.148;12.174;2023-02-17T23:50:59;7.40;;;1.77;;
53513;SDS011;39768;54.148;12.174;2023-02-17T23:55:02;4.97;;;1.45;;
53513;SDS011;39768;54.148;12.174;2023-02-17T23:59:06;7.97;;;0.98;;
